Terminal Aerodrome Forecast
Issued by NWS Tuscon, AZ

Home | Current Version | Previous Version | Text Only | Print | Product List | Glossary On
Versions: 1 2 3 4 5 6 7 8 9 10 11 12 13 14 15 16 17 18 19
461
FTUS45 KTWC 202337
TAFDUG
TAF
KDUG 202337Z 2100/2124 10012KT P6SM SCT060 SCT110
     FM210400 13006KT P6SM FEW060 BKN150
     FM211800 34009KT P6SM FEW080 SCT120
     FM212200 12008KT P6SM VCSH SCT060 BKN100=

USA.gov is the U.S. government's official web portal to all federal, state and local government web resources and services.